Terminal Aerodrome Forecast
Issued by NWS Pittsburgh, PA

Current Version | Previous Version | Graphics & Text | Print | Product List | Glossary On
Versions: 1 2 3 4 5 6 7 8 9 10 11 12 13 14 15 16 17 18 19 20 21 22 23 24 25 26 27 28 29 30 31
000
FTUS41 KPBZ 040410 AAD
TAFPIT
TAF AMD
KPIT 040410Z 0404/0506 03005KT 4SM -SHRA BR SCT007 OVC030
     FM040900 VRB05KT 5SM -SHRA BR OVC007
     FM041500 32008KT P6SM BKN020
     FM041700 33008KT P6SM SCT025=

USA.gov is the U.S. government's official web portal to all federal, state and local government web resources and services.